sensor_id;sensor_type;location;lat;lon;timestamp;temperature;humidity
27384;DHT22;14851;51.166;4.760;2023-04-16T00:02:11;9.10;99.90
27384;DHT22;14851;51.166;4.760;2023-04-16T00:04:37;9.10;99.90
27384;DHT22;14851;51.166;4.760;2023-04-16T00:07:03;9.10;99.90
27384;DHT22;14851;51.166;4.760;2023-04-16T00:09:29;9.10;99.90
27384;DHT22;14851;51.166;4.760;2023-04-16T00:11:57;9.10;99.90
27384;DHT22;14851;51.166;4.760;2023-04-16T00:14:23;9.10;99.90
27384;DHT22;14851;51.166;4.760;2023-04-16T00:16:48;9.10;99.90
27384;DHT22;14851;51.166;4.760;2023-04-16T00:19:15;9.10;99.90
27384;DHT22;14851;51.166;4.760;2023-04-16T00:21:40;9.10;99.90
27384;DHT22;14851;51.166;4.760;2023-04-16T00:24:06;9.10;99.90
27384;DHT22;14851;51.166;4.760;2023-04-16T00:26:32;9.10;99.90
27384;DHT22;14851;51.166;4.760;2023-04-16T00:28:59;9.00;99.90
27384;DHT22;14851;51.166;4.760;2023-04-16T00:31:30;9.10;99.90
27384;DHT22;14851;51.166;4.760;2023-04-16T00:33:56;9.10;99.90
27384;DHT22;14851;51.166;4.760;2023-04-16T00:36:23;9.10;99.90
27384;DHT22;14851;51.166;4.760;2023-04-16T00:38:49;9.10;99.90
27384;DHT22;14851;51.166;4.760;2023-04-16T00:41:18;9.10;99.90
27384;DHT22;14851;51.166;4.760;2023-04-16T00:43:46;9.10;99.90
27384;DHT22;14851;51.166;4.760;2023-04-16T00:46:15;9.00;99.90
27384;DHT22;14851;51.166;4.760;2023-04-16T00:48:42;9.10;99.90
27384;DHT22;14851;51.166;4.760;2023-04-16T00:51:11;9.00;99.90
27384;DHT22;14851;51.166;4.760;2023-04-16T00:53:37;9.10;99.90
27384;DHT22;14851;51.166;4.760;2023-04-16T00:56:06;9.00;99.90
27384;DHT22;14851;51.166;4.760;2023-04-16T00:58:33;9.00;99.90
27384;DHT22;14851;51.166;4.760;2023-04-16T01:01:00;9.00;99.90
27384;DHT22;14851;51.166;4.760;2023-04-16T01:03:36;9.00;99.90
27384;DHT22;14851;51.166;4.760;2023-04-16T01:06:03;9.00;99.90
27384;DHT22;14851;51.166;4.760;2023-04-16T01:08:28;9.00;99.90
27384;DHT22;14851;51.166;4.760;2023-04-16T01:10:54;9.00;99.90
27384;DHT22;14851;51.166;4.760;2023-04-16T01:13:21;9.00;99.90
27384;DHT22;14851;51.166;4.760;2023-04-16T01:15:50;9.00;99.90
27384;DHT22;14851;51.166;4.760;2023-04-16T01:18:19;9.00;99.90
27384;DHT22;14851;51.166;4.760;2023-04-16T01:20:46;9.00;99.90
27384;DHT22;14851;51.166;4.760;2023-04-16T01:23:12;9.00;99.90
27384;DHT22;14851;51.166;4.760;2023-04-16T01:25:38;9.00;99.90
27384;DHT22;14851;51.166;4.760;2023-04-16T01:28:05;9.00;99.90
27384;DHT22;14851;51.166;4.760;2023-04-16T01:30:34;9.00;99.90
27384;DHT22;14851;51.166;4.760;2023-04-16T01:33:11;9.00;99.90
27384;DHT22;14851;51.166;4.760;2023-04-16T01:35:38;9.00;99.90
27384;DHT22;14851;51.166;4.760;2023-04-16T01:38:07;8.90;99.90
27384;DHT22;14851;51.166;4.760;2023-04-16T01:40:36;8.90;99.90
27384;DHT22;14851;51.166;4.760;2023-04-16T01:43:04;9.00;99.90
27384;DHT22;14851;51.166;4.760;2023-04-16T01:45:31;8.90;99.90
27384;DHT22;14851;51.166;4.760;2023-04-16T01:47:57;8.90;99.90
27384;DHT22;14851;51.166;4.760;2023-04-16T01:50:23;8.90;99.90
27384;DHT22;14851;51.166;4.760;2023-04-16T01:52:49;8.90;99.90
27384;DHT22;14851;51.166;4.760;2023-04-16T01:55:17;8.90;99.90
27384;DHT22;14851;51.166;4.760;2023-04-16T01:57:43;8.90;99.90
27384;DHT22;14851;51.166;4.760;2023-04-16T02:00:12;8.90;99.90
27384;DHT22;14851;51.166;4.760;2023-04-16T02:02:44;8.80;99.90
27384;DHT22;14851;51.166;4.760;2023-04-16T02:05:14;8.80;99.90
27384;DHT22;14851;51.166;4.760;2023-04-16T02:07:40;8.80;99.90
27384;DHT22;14851;51.166;4.760;2023-04-16T02:10:06;8.80;99.90
27384;DHT22;14851;51.166;4.760;2023-04-16T02:12:36;8.80;99.90
27384;DHT22;14851;51.166;4.760;2023-04-16T02:15:03;8.80;99.90
27384;DHT22;14851;51.166;4.760;2023-04-16T02:17:33;8.80;99.90
27384;DHT22;14851;51.166;4.760;2023-04-16T02:20:09;8.80;99.90
27384;DHT22;14851;51.166;4.760;2023-04-16T02:22:41;8.80;99.90
27384;DHT22;14851;51.166;4.760;2023-04-16T02:25:09;8.80;99.90
27384;DHT22;14851;51.166;4.760;2023-04-16T02:27:38;8.80;99.90
27384;DHT22;14851;51.166;4.760;2023-04-16T02:30:19;8.80;99.90
27384;DHT22;14851;51.166;4.760;2023-04-16T02:32:45;8.80;99.90
27384;DHT22;14851;51.166;4.760;2023-04-16T02:35:12;8.70;99.90
27384;DHT22;14851;51.166;4.760;2023-04-16T02:37:40;8.80;99.90
27384;DHT22;14851;51.166;4.760;2023-04-16T02:40:06;8.70;99.90
27384;DHT22;14851;51.166;4.760;2023-04-16T02:42:32;8.70;99.90
27384;DHT22;14851;51.166;4.760;2023-04-16T02:44:58;8.70;99.90
27384;DHT22;14851;51.166;4.760;2023-04-16T02:47:24;8.70;99.90
27384;DHT22;14851;51.166;4.760;2023-04-16T02:49:52;8.70;99.90
27384;DHT22;14851;51.166;4.760;2023-04-16T02:52:18;8.70;99.90
27384;DHT22;14851;51.166;4.760;2023-04-16T02:54:44;8.70;99.90
27384;DHT22;14851;51.166;4.760;2023-04-16T02:57:10;8.70;99.90
27384;DHT22;14851;51.166;4.760;2023-04-16T02:59:36;8.70;99.90
27384;DHT22;14851;51.166;4.760;2023-04-16T03:02:01;8.70;99.90
27384;DHT22;14851;51.166;4.760;2023-04-16T03:04:28;8.70;99.90
27384;DHT22;14851;51.166;4.760;2023-04-16T03:06:54;8.70;99.90
27384;DHT22;14851;51.166;4.760;2023-04-16T03:09:20;8.70;99.90
27384;DHT22;14851;51.166;4.760;2023-04-16T03:11:46;8.70;99.90
27384;DHT22;14851;51.166;4.760;2023-04-16T03:14:12;8.70;99.90
27384;DHT22;14851;51.166;4.760;2023-04-16T03:16:37;8.70;99.90
27384;DHT22;14851;51.166;4.760;2023-04-16T03:19:03;8.60;99.90
27384;DHT22;14851;51.166;4.760;2023-04-16T03:21:29;8.60;99.90
27384;DHT22;14851;51.166;4.760;2023-04-16T03:23:57;8.60;99.90
27384;DHT22;14851;51.166;4.760;2023-04-16T03:26:23;8.60;99.90
27384;DHT22;14851;51.166;4.760;2023-04-16T03:28:51;8.70;99.90
27384;DHT22;14851;51.166;4.760;2023-04-16T03:31:17;8.70;99.90
27384;DHT22;14851;51.166;4.760;2023-04-16T03:33:43;8.70;99.90
27384;DHT22;14851;51.166;4.760;2023-04-16T03:36:12;8.70;99.90
27384;DHT22;14851;51.166;4.760;2023-04-16T03:38:40;8.70;99.90
27384;DHT22;14851;51.166;4.760;2023-04-16T03:41:09;8.70;99.90
27384;DHT22;14851;51.166;4.760;2023-04-16T03:43:35;8.70;99.90
27384;DHT22;14851;51.166;4.760;2023-04-16T03:46:01;8.70;99.90
27384;DHT22;14851;51.166;4.760;2023-04-16T03:48:27;8.70;99.90
27384;DHT22;14851;51.166;4.760;2023-04-16T03:50:55;8.70;99.90
27384;DHT22;14851;51.166;4.760;2023-04-16T03:53:21;8.70;99.90
27384;DHT22;14851;51.166;4.760;2023-04-16T03:55:53;8.70;99.90
27384;DHT22;14851;51.166;4.760;2023-04-16T03:58:20;8.70;99.90
27384;DHT22;14851;51.166;4.760;2023-04-16T04:00:50;8.70;99.90
27384;DHT22;14851;51.166;4.760;2023-04-16T04:03:17;8.70;99.90
27384;DHT22;14851;51.166;4.760;2023-04-16T04:05:48;8.70;99.90
27384;DHT22;14851;51.166;4.760;2023-04-16T04:08:20;8.70;99.90
27384;DHT22;14851;51.166;4.760;2023-04-16T04:10:46;8.70;99.90
27384;DHT22;14851;51.166;4.760;2023-04-16T04:13:13;8.70;99.90
27384;DHT22;14851;51.166;4.760;2023-04-16T04:15:40;8.70;99.90
27384;DHT22;14851;51.166;4.760;2023-04-16T04:18:06;8.70;99.90
27384;DHT22;14851;51.166;4.760;2023-04-16T04:20:38;8.70;99.90
27384;DHT22;14851;51.166;4.760;2023-04-16T04:23:07;8.70;99.90
27384;DHT22;14851;51.166;4.760;2023-04-16T04:25:35;8.70;99.90
27384;DHT22;14851;51.166;4.760;2023-04-16T04:28:01;8.70;99.90
27384;DHT22;14851;51.166;4.760;2023-04-16T04:30:27;8.70;99.90
27384;DHT22;14851;51.166;4.760;2023-04-16T04:32:53;8.60;99.90
27384;DHT22;14851;51.166;4.760;2023-04-16T04:35:21;8.60;99.90
27384;DHT22;14851;51.166;4.760;2023-04-16T04:37:47;8.70;99.90
27384;DHT22;14851;51.166;4.760;2023-04-16T04:40:17;8.60;99.90
27384;DHT22;14851;51.166;4.760;2023-04-16T04:42:44;8.60;99.90
27384;DHT22;14851;51.166;4.760;2023-04-16T04:45:10;8.60;99.90
27384;DHT22;14851;51.166;4.760;2023-04-16T04:47:36;8.60;99.90
27384;DHT22;14851;51.166;4.760;2023-04-16T04:50:02;8.60;99.90
27384;DHT22;14851;51.166;4.760;2023-04-16T04:52:30;8.60;99.90
27384;DHT22;14851;51.166;4.760;2023-04-16T04:54:59;8.60;99.90
27384;DHT22;14851;51.166;4.760;2023-04-16T04:57:28;8.60;99.90
27384;DHT22;14851;51.166;4.760;2023-04-16T04:59:54;8.60;99.90
27384;DHT22;14851;51.166;4.760;2023-04-16T05:02:21;8.60;99.90
27384;DHT22;14851;51.166;4.760;2023-04-16T05:04:47;8.60;99.90
27384;DHT22;14851;51.166;4.760;2023-04-16T05:07:13;8.60;99.90
27384;DHT22;14851;51.166;4.760;2023-04-16T05:09:38;8.50;99.90
27384;DHT22;14851;51.166;4.760;2023-04-16T05:12:05;8.60;99.90
27384;DHT22;14851;51.166;4.760;2023-04-16T05:14:32;8.60;99.90
27384;DHT22;14851;51.166;4.760;2023-04-16T05:17:00;8.50;99.90
27384;DHT22;14851;51.166;4.760;2023-04-16T05:19:26;8.60;99.90
27384;DHT22;14851;51.166;4.760;2023-04-16T05:21:52;8.50;99.90
27384;DHT22;14851;51.166;4.760;2023-04-16T05:24:19;8.50;99.90
27384;DHT22;14851;51.166;4.760;2023-04-16T05:26:44;8.50;99.90
27384;DHT22;14851;51.166;4.760;2023-04-16T05:29:10;8.50;99.90
27384;DHT22;14851;51.166;4.760;2023-04-16T05:31:36;8.50;99.90
27384;DHT22;14851;51.166;4.760;2023-04-16T05:34:02;8.50;99.90
27384;DHT22;14851;51.166;4.760;2023-04-16T05:36:28;8.50;99.90
27384;DHT22;14851;51.166;4.760;2023-04-16T05:38:57;8.50;99.90
27384;DHT22;14851;51.166;4.760;2023-04-16T05:41:23;8.50;99.90
27384;DHT22;14851;51.166;4.760;2023-04-16T05:43:48;8.50;99.90
27384;DHT22;14851;51.166;4.760;2023-04-16T05:46:17;8.50;99.90
27384;DHT22;14851;51.166;4.760;2023-04-16T05:48:42;8.50;99.90
27384;DHT22;14851;51.166;4.760;2023-04-16T05:51:08;8.50;99.90
27384;DHT22;14851;51.166;4.760;2023-04-16T05:53:34;8.40;99.90
27384;DHT22;14851;51.166;4.760;2023-04-16T05:56:00;8.50;99.90
27384;DHT22;14851;51.166;4.760;2023-04-16T05:58:26;8.50;99.90
27384;DHT22;14851;51.166;4.760;2023-04-16T06:00:52;8.50;99.90
27384;DHT22;14851;51.166;4.760;2023-04-16T06:03:17;8.50;99.90
27384;DHT22;14851;51.166;4.760;2023-04-16T06:05:43;8.50;99.90
27384;DHT22;14851;51.166;4.760;2023-04-16T06:08:09;8.50;99.90
27384;DHT22;14851;51.166;4.760;2023-04-16T06:10:35;8.50;99.90
27384;DHT22;14851;51.166;4.760;2023-04-16T06:13:03;8.40;99.90
27384;DHT22;14851;51.166;4.760;2023-04-16T06:15:29;8.50;99.90
27384;DHT22;14851;51.166;4.760;2023-04-16T06:17:57;8.50;99.90
27384;DHT22;14851;51.166;4.760;2023-04-16T06:20:25;8.60;99.90
27384;DHT22;14851;51.166;4.760;2023-04-16T06:22:51;8.70;99.90
27384;DHT22;14851;51.166;4.760;2023-04-16T06:25:22;8.70;99.90
27384;DHT22;14851;51.166;4.760;2023-04-16T06:27:48;8.70;99.90
27384;DHT22;14851;51.166;4.760;2023-04-16T06:30:14;8.70;99.90
27384;DHT22;14851;51.166;4.760;2023-04-16T06:32:43;8.70;99.90
27384;DHT22;14851;51.166;4.760;2023-04-16T06:35:10;8.70;99.90
27384;DHT22;14851;51.166;4.760;2023-04-16T06:37:41;8.70;99.90
27384;DHT22;14851;51.166;4.760;2023-04-16T06:40:07;8.70;99.90
27384;DHT22;14851;51.166;4.760;2023-04-16T06:42:33;8.70;99.90
27384;DHT22;14851;51.166;4.760;2023-04-16T06:45:01;8.70;99.90
27384;DHT22;14851;51.166;4.760;2023-04-16T06:47:27;8.70;99.90
27384;DHT22;14851;51.166;4.760;2023-04-16T06:49:53;8.70;99.90
27384;DHT22;14851;51.166;4.760;2023-04-16T06:52:23;8.70;99.90
27384;DHT22;14851;51.166;4.760;2023-04-16T06:54:49;8.70;99.90
27384;DHT22;14851;51.166;4.760;2023-04-16T06:57:17;8.70;99.90
27384;DHT22;14851;51.166;4.760;2023-04-16T06:59:43;8.60;99.90
27384;DHT22;14851;51.166;4.760;2023-04-16T07:02:11;8.60;99.90
27384;DHT22;14851;51.166;4.760;2023-04-16T07:04:37;8.50;99.90
27384;DHT22;14851;51.166;4.760;2023-04-16T07:07:03;8.50;99.90
27384;DHT22;14851;51.166;4.760;2023-04-16T07:09:29;8.50;99.90
27384;DHT22;14851;51.166;4.760;2023-04-16T07:11:55;8.60;99.90
27384;DHT22;14851;51.166;4.760;2023-04-16T07:14:21;8.60;99.90
27384;DHT22;14851;51.166;4.760;2023-04-16T07:16:47;8.60;99.90
27384;DHT22;14851;51.166;4.760;2023-04-16T07:19:13;8.60;99.90
27384;DHT22;14851;51.166;4.760;2023-04-16T07:21:39;8.50;99.90
27384;DHT22;14851;51.166;4.760;2023-04-16T07:24:09;8.60;99.90
27384;DHT22;14851;51.166;4.760;2023-04-16T07:26:36;8.60;99.90
27384;DHT22;14851;51.166;4.760;2023-04-16T07:29:02;8.60;99.90
27384;DHT22;14851;51.166;4.760;2023-04-16T07:31:28;8.60;99.90
27384;DHT22;14851;51.166;4.760;2023-04-16T07:33:54;8.60;99.90
27384;DHT22;14851;51.166;4.760;2023-04-16T07:36:20;8.60;99.90
27384;DHT22;14851;51.166;4.760;2023-04-16T07:38:46;8.60;99.90
27384;DHT22;14851;51.166;4.760;2023-04-16T07:41:12;8.60;99.90
27384;DHT22;14851;51.166;4.760;2023-04-16T07:43:38;8.60;99.90
27384;DHT22;14851;51.166;4.760;2023-04-16T07:46:03;8.60;99.90
27384;DHT22;14851;51.166;4.760;2023-04-16T07:48:29;8.60;99.90
27384;DHT22;14851;51.166;4.760;2023-04-16T07:50:58;8.70;99.90
27384;DHT22;14851;51.166;4.760;2023-04-16T07:53:23;8.60;99.90
27384;DHT22;14851;51.166;4.760;2023-04-16T07:55:49;8.60;99.90
27384;DHT22;14851;51.166;4.760;2023-04-16T07:58:20;8.60;99.90
27384;DHT22;14851;51.166;4.760;2023-04-16T08:00:46;8.70;99.90
27384;DHT22;14851;51.166;4.760;2023-04-16T08:03:14;8.70;99.90
27384;DHT22;14851;51.166;4.760;2023-04-16T08:05:40;8.60;99.90
27384;DHT22;14851;51.166;4.760;2023-04-16T08:08:06;8.70;99.90
27384;DHT22;14851;51.166;4.760;2023-04-16T08:10:32;8.70;99.90
27384;DHT22;14851;51.166;4.760;2023-04-16T08:12:59;8.70;99.90
27384;DHT22;14851;51.166;4.760;2023-04-16T08:15:27;8.70;99.90
27384;DHT22;14851;51.166;4.760;2023-04-16T08:17:53;8.70;99.90
27384;DHT22;14851;51.166;4.760;2023-04-16T08:20:19;8.70;99.90
27384;DHT22;14851;51.166;4.760;2023-04-16T08:22:48;8.70;99.90
27384;DHT22;14851;51.166;4.760;2023-04-16T08:25:14;8.80;99.90
27384;DHT22;14851;51.166;4.760;2023-04-16T08:27:40;8.80;99.90
27384;DHT22;14851;51.166;4.760;2023-04-16T08:30:06;8.80;99.90
27384;DHT22;14851;51.166;4.760;2023-04-16T08:32:32;8.80;99.90
27384;DHT22;14851;51.166;4.760;2023-04-16T08:35:01;8.80;99.90
27384;DHT22;14851;51.166;4.760;2023-04-16T08:37:27;8.80;99.90
27384;DHT22;14851;51.166;4.760;2023-04-16T08:39:52;8.80;99.90
27384;DHT22;14851;51.166;4.760;2023-04-16T08:45:05;8.80;99.90
27384;DHT22;14851;51.166;4.760;2023-04-16T08:47:34;8.80;99.90
27384;DHT22;14851;51.166;4.760;2023-04-16T08:50:04;8.80;99.90
27384;DHT22;14851;51.166;4.760;2023-04-16T08:52:36;8.80;99.90
27384;DHT22;14851;51.166;4.760;2023-04-16T08:55:14;8.90;99.90
27384;DHT22;14851;51.166;4.760;2023-04-16T08:57:47;8.90;99.90
27384;DHT22;14851;51.166;4.760;2023-04-16T09:00:13;8.90;99.90
27384;DHT22;14851;51.166;4.760;2023-04-16T09:02:41;8.90;99.90
27384;DHT22;14851;51.166;4.760;2023-04-16T09:05:09;8.90;99.90
27384;DHT22;14851;51.166;4.760;2023-04-16T09:07:36;8.90;99.90
27384;DHT22;14851;51.166;4.760;2023-04-16T09:10:02;8.90;99.90
27384;DHT22;14851;51.166;4.760;2023-04-16T09:12:29;8.90;99.90
27384;DHT22;14851;51.166;4.760;2023-04-16T09:14:58;9.00;99.90
27384;DHT22;14851;51.166;4.760;2023-04-16T09:17:25;9.00;99.90
27384;DHT22;14851;51.166;4.760;2023-04-16T09:19:52;9.00;99.90
27384;DHT22;14851;51.166;4.760;2023-04-16T09:22:18;9.00;99.90
27384;DHT22;14851;51.166;4.760;2023-04-16T09:24:44;9.00;99.90
27384;DHT22;14851;51.166;4.760;2023-04-16T09:27:11;9.00;99.90
27384;DHT22;14851;51.166;4.760;2023-04-16T09:29:39;9.00;99.90
27384;DHT22;14851;51.166;4.760;2023-04-16T09:32:09;9.10;99.90
27384;DHT22;14851;51.166;4.760;2023-04-16T09:37:21;9.10;99.90
27384;DHT22;14851;51.166;4.760;2023-04-16T09:39:58;9.10;99.90
27384;DHT22;14851;51.166;4.760;2023-04-16T09:42:32;9.10;99.90
27384;DHT22;14851;51.166;4.760;2023-04-16T09:44:59;9.10;99.90
27384;DHT22;14851;51.166;4.760;2023-04-16T09:47:45;9.10;99.90
27384;DHT22;14851;51.166;4.760;2023-04-16T09:50:16;9.10;99.90
27384;DHT22;14851;51.166;4.760;2023-04-16T09:52:49;9.10;99.90
27384;DHT22;14851;51.166;4.760;2023-04-16T09:55:21;9.20;99.90
27384;DHT22;14851;51.166;4.760;2023-04-16T09:57:46;9.20;99.90
27384;DHT22;14851;51.166;4.760;2023-04-16T10:00:17;9.20;99.90
27384;DHT22;14851;51.166;4.760;2023-04-16T10:02:45;9.20;99.90
27384;DHT22;14851;51.166;4.760;2023-04-16T10:05:13;9.20;99.90
27384;DHT22;14851;51.166;4.760;2023-04-16T10:07:43;9.20;99.90
27384;DHT22;14851;51.166;4.760;2023-04-16T10:10:15;9.30;99.90
27384;DHT22;14851;51.166;4.760;2023-04-16T10:12:44;9.30;99.90
27384;DHT22;14851;51.166;4.760;2023-04-16T10:15:10;9.30;99.90
27384;DHT22;14851;51.166;4.760;2023-04-16T10:17:36;9.30;99.90
27384;DHT22;14851;51.166;4.760;2023-04-16T10:20:03;9.30;99.90
27384;DHT22;14851;51.166;4.760;2023-04-16T10:22:30;9.30;99.90
27384;DHT22;14851;51.166;4.760;2023-04-16T10:24:57;9.30;99.90
27384;DHT22;14851;51.166;4.760;2023-04-16T10:27:23;9.40;99.90
27384;DHT22;14851;51.166;4.760;2023-04-16T10:29:50;9.40;99.90
27384;DHT22;14851;51.166;4.760;2023-04-16T10:32:17;9.40;99.90
27384;DHT22;14851;51.166;4.760;2023-04-16T10:34:45;9.40;99.90
27384;DHT22;14851;51.166;4.760;2023-04-16T10:37:11;9.50;99.90
27384;DHT22;14851;51.166;4.760;2023-04-16T10:39:37;9.50;99.90
27384;DHT22;14851;51.166;4.760;2023-04-16T10:42:10;9.50;99.90
27384;DHT22;14851;51.166;4.760;2023-04-16T10:44:37;9.50;99.90
27384;DHT22;14851;51.166;4.760;2023-04-16T10:47:11;9.50;99.90
27384;DHT22;14851;51.166;4.760;2023-04-16T10:49:37;9.50;99.90
27384;DHT22;14851;51.166;4.760;2023-04-16T10:52:14;9.50;99.90
27384;DHT22;14851;51.166;4.760;2023-04-16T10:54:46;9.50;99.90
27384;DHT22;14851;51.166;4.760;2023-04-16T10:57:16;9.60;99.90
27384;DHT22;14851;51.166;4.760;2023-04-16T10:59:43;9.60;99.90
27384;DHT22;14851;51.166;4.760;2023-04-16T11:02:14;9.60;99.90
27384;DHT22;14851;51.166;4.760;2023-04-16T11:04:42;9.60;99.90
27384;DHT22;14851;51.166;4.760;2023-04-16T11:15:18;9.70;99.90
27384;DHT22;14851;51.166;4.760;2023-04-16T11:17:50;9.70;99.90
27384;DHT22;14851;51.166;4.760;2023-04-16T11:22:53;9.70;99.90
27384;DHT22;14851;51.166;4.760;2023-04-16T11:25:28;9.70;99.90
27384;DHT22;14851;51.166;4.760;2023-04-16T11:27:57;9.80;99.90
27384;DHT22;14851;51.166;4.760;2023-04-16T11:30:33;9.80;99.90
27384;DHT22;14851;51.166;4.760;2023-04-16T11:33:09;9.80;99.90
27384;DHT22;14851;51.166;4.760;2023-04-16T11:35:39;9.80;99.90
27384;DHT22;14851;51.166;4.760;2023-04-16T11:38:08;9.80;99.90
27384;DHT22;14851;51.166;4.760;2023-04-16T11:40:34;9.80;99.90
27384;DHT22;14851;51.166;4.760;2023-04-16T11:43:16;9.80;99.90
27384;DHT22;14851;51.166;4.760;2023-04-16T11:46:01;9.90;99.90
27384;DHT22;14851;51.166;4.760;2023-04-16T11:48:49;9.90;99.90
27384;DHT22;14851;51.166;4.760;2023-04-16T11:51:16;10.00;99.90
27384;DHT22;14851;51.166;4.760;2023-04-16T11:54:03;10.00;99.90
27384;DHT22;14851;51.166;4.760;2023-04-16T11:56:33;10.10;99.90
27384;DHT22;14851;51.166;4.760;2023-04-16T11:59:13;10.10;99.90
27384;DHT22;14851;51.166;4.760;2023-04-16T12:01:41;10.10;99.90
27384;DHT22;14851;51.166;4.760;2023-04-16T12:04:07;10.10;99.90
27384;DHT22;14851;51.166;4.760;2023-04-16T12:06:33;10.10;99.90
27384;DHT22;14851;51.166;4.760;2023-04-16T12:09:10;10.10;99.90
27384;DHT22;14851;51.166;4.760;2023-04-16T12:11:46;10.10;99.90
27384;DHT22;14851;51.166;4.760;2023-04-16T12:14:12;10.10;99.90
27384;DHT22;14851;51.166;4.760;2023-04-16T12:16:38;10.10;99.90
27384;DHT22;14851;51.166;4.760;2023-04-16T12:19:04;10.10;99.90
27384;DHT22;14851;51.166;4.760;2023-04-16T12:21:49;10.10;99.90
27384;DHT22;14851;51.166;4.760;2023-04-16T12:24:17;10.20;99.90
27384;DHT22;14851;51.166;4.760;2023-04-16T12:26:53;10.10;99.90
27384;DHT22;14851;51.166;4.760;2023-04-16T12:29:29;10.10;99.90
27384;DHT22;14851;51.166;4.760;2023-04-16T12:31:58;10.10;99.90
27384;DHT22;14851;51.166;4.760;2023-04-16T12:34:27;10.20;99.90
27384;DHT22;14851;51.166;4.760;2023-04-16T12:37:05;10.20;99.90
27384;DHT22;14851;51.166;4.760;2023-04-16T12:39:32;10.20;99.90
27384;DHT22;14851;51.166;4.760;2023-04-16T12:41:57;10.20;99.90
27384;DHT22;14851;51.166;4.760;2023-04-16T12:44:23;10.20;99.90
27384;DHT22;14851;51.166;4.760;2023-04-16T12:46:54;10.30;99.90
27384;DHT22;14851;51.166;4.760;2023-04-16T12:49:20;10.30;99.90
27384;DHT22;14851;51.166;4.760;2023-04-16T12:51:47;10.30;99.90
27384;DHT22;14851;51.166;4.760;2023-04-16T12:54:15;10.30;99.90
27384;DHT22;14851;51.166;4.760;2023-04-16T12:56:41;10.30;99.90
27384;DHT22;14851;51.166;4.760;2023-04-16T12:59:07;10.30;99.90
27384;DHT22;14851;51.166;4.760;2023-04-16T13:01:35;10.30;99.90
27384;DHT22;14851;51.166;4.760;2023-04-16T13:04:01;10.30;99.90
27384;DHT22;14851;51.166;4.760;2023-04-16T13:06:28;10.40;99.90
27384;DHT22;14851;51.166;4.760;2023-04-16T13:08:55;10.40;99.90
27384;DHT22;14851;51.166;4.760;2023-04-16T13:11:24;10.30;99.90
27384;DHT22;14851;51.166;4.760;2023-04-16T13:13:50;10.30;99.90
27384;DHT22;14851;51.166;4.760;2023-04-16T13:16:15;10.40;99.90
27384;DHT22;14851;51.166;4.760;2023-04-16T13:18:41;10.30;99.90
27384;DHT22;14851;51.166;4.760;2023-04-16T13:21:07;10.40;99.90
27384;DHT22;14851;51.166;4.760;2023-04-16T13:23:34;10.40;99.90
27384;DHT22;14851;51.166;4.760;2023-04-16T13:26:00;10.40;99.90
27384;DHT22;14851;51.166;4.760;2023-04-16T13:28:28;10.40;99.90
27384;DHT22;14851;51.166;4.760;2023-04-16T13:30:54;10.50;99.90
27384;DHT22;14851;51.166;4.760;2023-04-16T13:33:20;10.50;99.90
27384;DHT22;14851;51.166;4.760;2023-04-16T13:35:49;10.40;99.90
27384;DHT22;14851;51.166;4.760;2023-04-16T13:38:15;10.50;99.90
27384;DHT22;14851;51.166;4.760;2023-04-16T13:40:41;10.50;99.90
27384;DHT22;14851;51.166;4.760;2023-04-16T13:43:07;10.50;99.90
27384;DHT22;14851;51.166;4.760;2023-04-16T13:45:36;10.60;99.90
27384;DHT22;14851;51.166;4.760;2023-04-16T13:48:02;10.60;99.90
27384;DHT22;14851;51.166;4.760;2023-04-16T13:50:28;10.60;99.90
27384;DHT22;14851;51.166;4.760;2023-04-16T13:52:54;10.60;99.90
27384;DHT22;14851;51.166;4.760;2023-04-16T13:55:21;10.60;99.90
27384;DHT22;14851;51.166;4.760;2023-04-16T13:57:48;10.60;99.90
27384;DHT22;14851;51.166;4.760;2023-04-16T14:00:18;10.60;99.90
27384;DHT22;14851;51.166;4.760;2023-04-16T14:02:44;10.60;99.90
27384;DHT22;14851;51.166;4.760;2023-04-16T14:05:10;10.60;99.90
27384;DHT22;14851;51.166;4.760;2023-04-16T14:07:36;10.70;99.90
27384;DHT22;14851;51.166;4.760;2023-04-16T14:10:02;10.70;99.90
27384;DHT22;14851;51.166;4.760;2023-04-16T14:12:29;10.70;99.90
27384;DHT22;14851;51.166;4.760;2023-04-16T14:14:56;10.70;99.90
27384;DHT22;14851;51.166;4.760;2023-04-16T14:17:24;10.60;99.90
27384;DHT22;14851;51.166;4.760;2023-04-16T14:19:50;10.70;99.90
27384;DHT22;14851;51.166;4.760;2023-04-16T14:22:18;10.70;99.90
27384;DHT22;14851;51.166;4.760;2023-04-16T14:24:43;10.70;99.90
27384;DHT22;14851;51.166;4.760;2023-04-16T14:27:12;10.70;99.90
27384;DHT22;14851;51.166;4.760;2023-04-16T14:29:38;10.70;99.90
27384;DHT22;14851;51.166;4.760;2023-04-16T14:32:04;10.80;99.90
27384;DHT22;14851;51.166;4.760;2023-04-16T14:34:31;10.70;99.90
27384;DHT22;14851;51.166;4.760;2023-04-16T14:36:57;10.80;99.90
27384;DHT22;14851;51.166;4.760;2023-04-16T14:39:23;10.80;99.90
27384;DHT22;14851;51.166;4.760;2023-04-16T14:41:49;10.80;99.90
27384;DHT22;14851;51.166;4.760;2023-04-16T14:44:17;10.90;99.90
27384;DHT22;14851;51.166;4.760;2023-04-16T14:46:46;10.80;99.90
27384;DHT22;14851;51.166;4.760;2023-04-16T14:49:11;10.90;99.90
27384;DHT22;14851;51.166;4.760;2023-04-16T14:51:39;10.80;99.90
27384;DHT22;14851;51.166;4.760;2023-04-16T14:54:05;10.80;99.90
27384;DHT22;14851;51.166;4.760;2023-04-16T14:56:31;10.80;99.90
27384;DHT22;14851;51.166;4.760;2023-04-16T14:58:59;10.90;99.90
27384;DHT22;14851;51.166;4.760;2023-04-16T15:01:25;10.80;99.90
27384;DHT22;14851;51.166;4.760;2023-04-16T15:03:51;10.80;99.90
27384;DHT22;14851;51.166;4.760;2023-04-16T15:06:20;10.90;99.90
27384;DHT22;14851;51.166;4.760;2023-04-16T15:08:46;10.80;99.90
27384;DHT22;14851;51.166;4.760;2023-04-16T15:11:12;10.70;99.90
27384;DHT22;14851;51.166;4.760;2023-04-16T15:13:38;10.70;99.90
27384;DHT22;14851;51.166;4.760;2023-04-16T15:16:04;10.70;99.90
27384;DHT22;14851;51.166;4.760;2023-04-16T15:18:30;10.70;99.90
27384;DHT22;14851;51.166;4.760;2023-04-16T15:20:56;10.70;99.90
27384;DHT22;14851;51.166;4.760;2023-04-16T15:23:25;10.70;99.90
27384;DHT22;14851;51.166;4.760;2023-04-16T15:25:51;10.70;99.90
27384;DHT22;14851;51.166;4.760;2023-04-16T15:28:16;10.70;99.90
27384;DHT22;14851;51.166;4.760;2023-04-16T15:30:42;10.70;99.90
27384;DHT22;14851;51.166;4.760;2023-04-16T15:33:11;10.70;99.90
27384;DHT22;14851;51.166;4.760;2023-04-16T15:35:44;10.70;99.90
27384;DHT22;14851;51.166;4.760;2023-04-16T15:38:10;10.70;99.90
27384;DHT22;14851;51.166;4.760;2023-04-16T15:40:36;10.70;99.90
27384;DHT22;14851;51.166;4.760;2023-04-16T15:43:02;10.60;99.90
27384;DHT22;14851;51.166;4.760;2023-04-16T15:45:28;10.60;99.90
27384;DHT22;14851;51.166;4.760;2023-04-16T15:47:54;10.60;99.90
27384;DHT22;14851;51.166;4.760;2023-04-16T15:50:20;10.50;99.90
27384;DHT22;14851;51.166;4.760;2023-04-16T15:52:46;10.50;99.90
27384;DHT22;14851;51.166;4.760;2023-04-16T15:55:13;10.50;99.90
27384;DHT22;14851;51.166;4.760;2023-04-16T15:57:39;10.50;99.90
27384;DHT22;14851;51.166;4.760;2023-04-16T16:00:06;10.50;99.90
27384;DHT22;14851;51.166;4.760;2023-04-16T16:02:45;10.50;99.90